You are listening to:
LTFJ Del/Gnd/Twr - Istanbul, Turkey

LTFJ 060720Z 02008KT 350V060 9999 FEW019 SCT028 25/19 Q1010 NOSIG RMK RWY24 02008KT 340V050

If stream doesn't start automatically press the play button
If stream stops then reload player then press play